sensor_id;sensor_type;location;lat;lon;timestamp;pressure;altitude;pressure_sealevel;temperature;humidity
63343;BME280;49465;57.664;39.686;2023-03-04T00:00:06;98550.41;;;3.07;54.50
63343;BME280;49465;57.664;39.686;2023-03-04T00:02:34;98553.38;;;3.01;54.02
63343;BME280;49465;57.664;39.686;2023-03-04T00:05:03;98549.88;;;3.02;54.45
63343;BME280;49465;57.664;39.686;2023-03-04T00:07:30;98547.38;;;3.01;54.36
63343;BME280;49465;57.664;39.686;2023-03-04T00:09:56;98546.56;;;3.00;54.73
63343;BME280;49465;57.664;39.686;2023-03-04T00:12:23;98547.38;;;3.01;54.14
63343;BME280;49465;57.664;39.686;2023-03-04T00:14:49;98544.78;;;3.01;54.81
63343;BME280;49465;57.664;39.686;2023-03-04T00:17:15;98544.78;;;3.01;54.54
63343;BME280;49465;57.664;39.686;2023-03-04T00:19:43;98544.69;;;3.02;54.82
63343;BME280;49465;57.664;39.686;2023-03-04T00:22:09;98544.13;;;2.97;54.89
63343;BME280;49465;57.664;39.686;2023-03-04T00:24:36;98538.66;;;3.02;54.49
63343;BME280;49465;57.664;39.686;2023-03-04T00:27:02;98532.56;;;3.03;54.66
63343;BME280;49465;57.664;39.686;2023-03-04T00:29:28;98533.47;;;3.02;54.50
63343;BME280;49465;57.664;39.686;2023-03-04T00:31:56;98529.97;;;3.03;54.14
63343;BME280;49465;57.664;39.686;2023-03-04T00:34:22;98530.81;;;3.03;54.75
63343;BME280;49465;57.664;39.686;2023-03-04T00:36:48;98531.75;;;3.02;54.37
63343;BME280;49465;57.664;39.686;2023-03-04T00:39:15;98524.81;;;3.03;54.06
63343;BME280;49465;57.664;39.686;2023-03-04T00:41:41;98522.31;;;3.01;54.19
63343;BME280;49465;57.664;39.686;2023-03-04T00:44:13;98523.13;;;3.02;54.24
63343;BME280;49465;57.664;39.686;2023-03-04T00:46:42;98526.63;;;3.15;54.55
63343;BME280;49465;57.664;39.686;2023-03-04T00:49:12;98530.91;;;3.16;54.38
63343;BME280;49465;57.664;39.686;2023-03-04T00:51:43;98519.81;;;3.14;54.41
63343;BME280;49465;57.664;39.686;2023-03-04T00:54:11;98522.41;;;3.00;54.05
63343;BME280;49465;57.664;39.686;2023-03-04T00:56:46;98527.31;;;3.04;54.29
63343;BME280;49465;57.664;39.686;2023-03-04T00:59:15;98528.44;;;3.00;54.53
63343;BME280;49465;57.664;39.686;2023-03-04T01:01:44;98521.56;;;2.99;54.47
63343;BME280;49465;57.664;39.686;2023-03-04T01:04:22;98514.72;;;3.12;54.58
63343;BME280;49465;57.664;39.686;2023-03-04T01:06:51;98512.03;;;3.14;54.04
63343;BME280;49465;57.664;39.686;2023-03-04T01:09:23;98513.06;;;2.97;54.10
63343;BME280;49465;57.664;39.686;2023-03-04T01:12:00;98508.38;;;3.31;54.38
63343;BME280;49465;57.664;39.686;2023-03-04T01:14:36;98519.59;;;3.31;54.41
63343;BME280;49465;57.664;39.686;2023-03-04T01:17:05;98519.06;;;2.97;54.00
63343;BME280;49465;57.664;39.686;2023-03-04T01:19:43;98516.47;;;3.12;53.76
63343;BME280;49465;57.664;39.686;2023-03-04T01:22:10;98510.31;;;3.00;53.49
63343;BME280;49465;57.664;39.686;2023-03-04T01:24:41;98513.25;;;3.08;53.77
63343;BME280;49465;57.664;39.686;2023-03-04T01:27:11;98508.91;;;2.94;53.79
63343;BME280;49465;57.664;39.686;2023-03-04T01:29:43;98508.16;;;3.07;53.49
63343;BME280;49465;57.664;39.686;2023-03-04T01:32:13;98501.13;;;3.09;54.07
63343;BME280;49465;57.664;39.686;2023-03-04T01:34:48;98498.31;;;3.26;53.64
63343;BME280;49465;57.664;39.686;2023-03-04T01:37:24;98505.56;;;3.07;53.95
63343;BME280;49465;57.664;39.686;2023-03-04T01:39:53;98495.25;;;2.92;53.15
63343;BME280;49465;57.664;39.686;2023-03-04T01:42:21;98496.78;;;2.95;53.41
63343;BME280;49465;57.664;39.686;2023-03-04T01:44:51;98501.28;;;3.06;54.03
63343;BME280;49465;57.664;39.686;2023-03-04T01:47:29;98488.78;;;3.27;53.60
63343;BME280;49465;57.664;39.686;2023-03-04T01:50:02;98493.25;;;3.10;53.29
63343;BME280;49465;57.664;39.686;2023-03-04T01:52:32;98485.88;;;3.04;53.84
63343;BME280;49465;57.664;39.686;2023-03-04T01:55:05;98492.78;;;3.04;53.47
63343;BME280;49465;57.664;39.686;2023-03-04T01:57:34;98484.28;;;3.02;53.61
63343;BME280;49465;57.664;39.686;2023-03-04T02:00:19;98487.47;;;3.34;52.96
63343;BME280;49465;57.664;39.686;2023-03-04T02:02:51;98489.31;;;3.99;51.16
63343;BME280;49465;57.664;39.686;2023-03-04T02:05:21;98493.72;;;3.03;52.72
63343;BME280;49465;57.664;39.686;2023-03-04T02:07:49;98489.94;;;2.94;53.02
63343;BME280;49465;57.664;39.686;2023-03-04T02:10:24;98482.06;;;3.10;53.57
63343;BME280;49465;57.664;39.686;2023-03-04T02:12:53;98483.56;;;3.00;53.83
63343;BME280;49465;57.664;39.686;2023-03-04T02:15:23;98477.63;;;2.97;53.92
63343;BME280;49465;57.664;39.686;2023-03-04T02:17:55;98476.81;;;2.97;53.76
63343;BME280;49465;57.664;39.686;2023-03-04T02:20:29;98477.03;;;2.80;53.20
63343;BME280;49465;57.664;39.686;2023-03-04T02:28:41;98469.81;;;2.85;53.47
63343;BME280;49465;57.664;39.686;2023-03-04T02:34:05;98454.25;;;2.99;53.32
63343;BME280;49465;57.664;39.686;2023-03-04T02:36:43;98454.81;;;2.90;53.51
63343;BME280;49465;57.664;39.686;2023-03-04T02:39:35;98449.25;;;3.10;53.25
63343;BME280;49465;57.664;39.686;2023-03-04T02:42:05;98448.63;;;2.78;53.34
63343;BME280;49465;57.664;39.686;2023-03-04T02:44:44;98451.78;;;2.83;53.96
63343;BME280;49465;57.664;39.686;2023-03-04T02:47:17;98444.50;;;2.75;52.98
63343;BME280;49465;57.664;39.686;2023-03-04T02:49:44;98442.38;;;2.68;53.40
63343;BME280;49465;57.664;39.686;2023-03-04T02:52:27;98439.34;;;3.03;53.70
63343;BME280;49465;57.664;39.686;2023-03-04T02:54:56;98432.09;;;2.66;53.61
63343;BME280;49465;57.664;39.686;2023-03-04T02:57:22;98437.41;;;2.65;53.02
63343;BME280;49465;57.664;39.686;2023-03-04T02:59:51;98434.97;;;2.76;53.31
63343;BME280;49465;57.664;39.686;2023-03-04T03:02:20;98430.63;;;2.76;53.92
63343;BME280;49465;57.664;39.686;2023-03-04T03:04:46;98425.47;;;2.62;53.51
63343;BME280;49465;57.664;39.686;2023-03-04T03:07:13;98432.41;;;2.62;53.31
63343;BME280;49465;57.664;39.686;2023-03-04T03:09:39;98430.72;;;2.61;52.93
63343;BME280;49465;57.664;39.686;2023-03-04T03:12:11;98424.91;;;2.71;53.35
63343;BME280;49465;57.664;39.686;2023-03-04T03:14:37;98428.44;;;2.56;53.04
63343;BME280;49465;57.664;39.686;2023-03-04T03:17:04;98426.78;;;2.55;53.26
63343;BME280;49465;57.664;39.686;2023-03-04T03:19:30;98415.69;;;2.53;53.65
63343;BME280;49465;57.664;39.686;2023-03-04T03:22:00;98409.66;;;2.67;53.25
63343;BME280;49465;57.664;39.686;2023-03-04T03:24:26;98412.34;;;2.51;53.19
63343;BME280;49465;57.664;39.686;2023-03-04T03:26:52;98407.28;;;2.49;53.13
63343;BME280;49465;57.664;39.686;2023-03-04T03:29:19;98406.44;;;2.49;53.41
63343;BME280;49465;57.664;39.686;2023-03-04T03:31:45;98406.44;;;2.49;53.30
63343;BME280;49465;57.664;39.686;2023-03-04T03:34:33;98403.84;;;2.49;53.19
63343;BME280;49465;57.664;39.686;2023-03-04T03:36:58;98394.22;;;2.51;52.98
63343;BME280;49465;57.664;39.686;2023-03-04T03:39:30;98397.84;;;2.63;53.68
63343;BME280;49465;57.664;39.686;2023-03-04T03:41:59;98392.75;;;2.61;53.80
63343;BME280;49465;57.664;39.686;2023-03-04T03:44:28;98399.63;;;2.48;53.23
63343;BME280;49465;57.664;39.686;2023-03-04T03:47:02;98396.19;;;2.62;53.22
63343;BME280;49465;57.664;39.686;2023-03-04T03:49:34;98394.66;;;2.72;53.29
63343;BME280;49465;57.664;39.686;2023-03-04T03:52:03;98387.59;;;2.47;53.20
63343;BME280;49465;57.664;39.686;2023-03-04T03:54:32;98384.28;;;2.45;53.32
63343;BME280;49465;57.664;39.686;2023-03-04T03:57:01;98380.03;;;2.44;53.25
63343;BME280;49465;57.664;39.686;2023-03-04T03:59:30;98384.28;;;2.45;53.72
63343;BME280;49465;57.664;39.686;2023-03-04T04:02:02;98384.63;;;2.67;54.16
63343;BME280;49465;57.664;39.686;2023-03-04T04:04:32;98380.81;;;2.58;53.64
63343;BME280;49465;57.664;39.686;2023-03-04T04:06:58;98377.63;;;2.41;53.70
63343;BME280;49465;57.664;39.686;2023-03-04T04:09:25;98373.38;;;2.40;53.51
63343;BME280;49465;57.664;39.686;2023-03-04T04:11:55;98372.53;;;2.53;53.45
63343;BME280;49465;57.664;39.686;2023-03-04T04:14:39;98381.81;;;2.85;53.67
63343;BME280;49465;57.664;39.686;2023-03-04T04:17:08;98370.81;;;3.48;52.05
63343;BME280;49465;57.664;39.686;2023-03-04T04:19:41;98369.72;;;2.71;52.86
63343;BME280;49465;57.664;39.686;2023-03-04T04:22:12;98367.91;;;2.44;53.00
63343;BME280;49465;57.664;39.686;2023-03-04T04:24:39;98363.94;;;2.38;52.98
63343;BME280;49465;57.664;39.686;2023-03-04T04:27:09;98364.91;;;2.37;53.44
63343;BME280;49465;57.664;39.686;2023-03-04T04:29:39;98366.75;;;2.35;52.67
63343;BME280;49465;57.664;39.686;2023-03-04T04:32:06;98367.56;;;2.36;52.81
63343;BME280;49465;57.664;39.686;2023-03-04T04:34:37;98366.63;;;2.51;53.09
63343;BME280;49465;57.664;39.686;2023-03-04T04:37:12;98361.63;;;2.48;52.80
63343;BME280;49465;57.664;39.686;2023-03-04T04:39:38;98357.22;;;2.36;52.49
63343;BME280;49465;57.664;39.686;2023-03-04T04:42:13;98361.38;;;2.53;52.26
63343;BME280;49465;57.664;39.686;2023-03-04T04:44:45;98360.53;;;2.38;52.39
63343;BME280;49465;57.664;39.686;2023-03-04T04:47:14;98354.63;;;2.36;52.18
63343;BME280;49465;57.664;39.686;2023-03-04T04:49:52;98358.97;;;2.50;52.57
63343;BME280;49465;57.664;39.686;2023-03-04T04:52:26;98359.88;;;2.49;52.25
63343;BME280;49465;57.664;39.686;2023-03-04T04:55:13;98362.44;;;2.49;52.55
63343;BME280;49465;57.664;39.686;2023-03-04T04:57:44;98365.03;;;2.49;52.61
63343;BME280;49465;57.664;39.686;2023-03-04T05:00:14;98363.31;;;2.35;52.54
63343;BME280;49465;57.664;39.686;2023-03-04T05:02:43;98359.16;;;2.32;52.33
63343;BME280;49465;57.664;39.686;2023-03-04T05:05:10;98362.69;;;2.31;53.10
63343;BME280;49465;57.664;39.686;2023-03-04T05:07:36;98362.88;;;2.28;53.38
63343;BME280;49465;57.664;39.686;2023-03-04T05:10:08;98368.00;;;2.43;53.60
63343;BME280;49465;57.664;39.686;2023-03-04T05:12:37;98368.78;;;2.30;53.56
63343;BME280;49465;57.664;39.686;2023-03-04T05:15:07;98360.16;;;2.44;53.23
63343;BME280;49465;57.664;39.686;2023-03-04T05:17:33;98368.03;;;2.28;53.49
63343;BME280;49465;57.664;39.686;2023-03-04T05:20:02;98355.84;;;2.30;52.86
63343;BME280;49465;57.664;39.686;2023-03-04T05:22:35;98361.97;;;2.56;53.28
63343;BME280;49465;57.664;39.686;2023-03-04T05:25:02;98360.09;;;2.31;53.05
63343;BME280;49465;57.664;39.686;2023-03-04T05:27:40;98354.94;;;2.31;53.01
63343;BME280;49465;57.664;39.686;2023-03-04T05:30:12;98352.50;;;2.57;53.46
63343;BME280;49465;57.664;39.686;2023-03-04T05:32:41;98359.34;;;2.44;53.11
63343;BME280;49465;57.664;39.686;2023-03-04T05:35:13;98349.72;;;2.46;52.96
63343;BME280;49465;57.664;39.686;2023-03-04T05:37:45;98348.94;;;2.58;53.06
63343;BME280;49465;57.664;39.686;2023-03-04T05:40:21;98345.13;;;2.36;53.14
63343;BME280;49465;57.664;39.686;2023-03-04T05:42:54;98344.00;;;2.55;53.56
63343;BME280;49465;57.664;39.686;2023-03-04T05:45:26;98338.66;;;2.44;53.30
63343;BME280;49465;57.664;39.686;2023-03-04T05:47:53;98339.38;;;2.46;52.90
63343;BME280;49465;57.664;39.686;2023-03-04T05:50:20;98335.84;;;2.47;52.92
63343;BME280;49465;57.664;39.686;2023-03-04T05:52:48;98334.13;;;2.47;52.91
63343;BME280;49465;57.664;39.686;2023-03-04T05:55:18;98328.06;;;2.61;52.92
63343;BME280;49465;57.664;39.686;2023-03-04T05:57:45;98322.00;;;2.48;52.67
63343;BME280;49465;57.664;39.686;2023-03-04T06:00:26;98332.66;;;2.70;52.88
63343;BME280;49465;57.664;39.686;2023-03-04T06:02:53;98328.25;;;2.58;52.86
63343;BME280;49465;57.664;39.686;2023-03-04T06:05:20;98328.16;;;2.60;53.05
63343;BME280;49465;57.664;39.686;2023-03-04T06:07:52;98330.53;;;2.77;53.57
63343;BME280;49465;57.664;39.686;2023-03-04T06:10:19;98332.94;;;2.66;53.07
63343;BME280;49465;57.664;39.686;2023-03-04T06:12:52;98333.53;;;2.84;53.04
63343;BME280;49465;57.664;39.686;2023-03-04T06:15:21;98331.66;;;2.73;53.02
63343;BME280;49465;57.664;39.686;2023-03-04T06:17:53;98324.47;;;2.91;53.17
63343;BME280;49465;57.664;39.686;2023-03-04T06:20:20;98317.50;;;2.79;53.01
63343;BME280;49465;57.664;39.686;2023-03-04T06:22:51;98318.16;;;2.95;53.17
63343;BME280;49465;57.664;39.686;2023-03-04T06:25:22;98311.75;;;3.01;53.17
63343;BME280;49465;57.664;39.686;2023-03-04T06:27:48;98319.88;;;2.82;53.43
63343;BME280;49465;57.664;39.686;2023-03-04T06:30:19;98317.66;;;3.03;53.43
63343;BME280;49465;57.664;39.686;2023-03-04T06:32:51;98314.97;;;3.04;52.94
63343;BME280;49465;57.664;39.686;2023-03-04T06:35:18;98309.56;;;2.94;53.18
63343;BME280;49465;57.664;39.686;2023-03-04T06:37:44;98318.06;;;2.96;53.08
63343;BME280;49465;57.664;39.686;2023-03-04T06:40:16;98318.53;;;3.16;52.97
63343;BME280;49465;57.664;39.686;2023-03-04T06:42:45;98319.16;;;3.20;52.71
63343;BME280;49465;57.664;39.686;2023-03-04T06:45:12;98317.25;;;3.09;53.13
63343;BME280;49465;57.664;39.686;2023-03-04T06:47:43;98322.91;;;3.28;52.79
63343;BME280;49465;57.664;39.686;2023-03-04T06:50:13;98308.72;;;3.34;53.04
63343;BME280;49465;57.664;39.686;2023-03-04T06:52:40;98305.91;;;3.24;53.08
63343;BME280;49465;57.664;39.686;2023-03-04T06:55:10;98312.34;;;3.44;53.32
63343;BME280;49465;57.664;39.686;2023-03-04T06:57:40;98321.66;;;3.47;53.18
63343;BME280;49465;57.664;39.686;2023-03-04T07:00:10;98312.94;;;3.35;52.58
63343;BME280;49465;57.664;39.686;2023-03-04T07:02:37;98308.50;;;3.37;52.50
63343;BME280;49465;57.664;39.686;2023-03-04T07:05:10;98305.31;;;3.59;52.79
63343;BME280;49465;57.664;39.686;2023-03-04T07:07:37;98304.47;;;3.46;52.81
63343;BME280;49465;57.664;39.686;2023-03-04T07:10:04;98306.84;;;3.49;52.47
63343;BME280;49465;57.664;39.686;2023-03-04T07:12:33;98307.69;;;3.62;52.96
63343;BME280;49465;57.664;39.686;2023-03-04T07:15:02;98304.41;;;3.73;52.28
63343;BME280;49465;57.664;39.686;2023-03-04T07:17:28;98297.41;;;3.61;52.15
63343;BME280;49465;57.664;39.686;2023-03-04T07:19:55;98298.19;;;3.63;52.42
63343;BME280;49465;57.664;39.686;2023-03-04T07:22:24;98300.44;;;3.80;52.29
63343;BME280;49465;57.664;39.686;2023-03-04T07:24:53;98294.75;;;3.75;52.56
63343;BME280;49465;57.664;39.686;2023-03-04T07:27:19;98287.69;;;3.77;52.16
63343;BME280;49465;57.664;39.686;2023-03-04T07:29:50;98290.78;;;3.95;52.95
63343;BME280;49465;57.664;39.686;2023-03-04T07:32:17;98293.19;;;3.85;52.77
63343;BME280;49465;57.664;39.686;2023-03-04T07:34:46;98288.59;;;4.02;52.68
63343;BME280;49465;57.664;39.686;2023-03-04T07:37:12;98279.59;;;3.94;52.33
63343;BME280;49465;57.664;39.686;2023-03-04T07:39:39;98285.41;;;3.98;52.83
63343;BME280;49465;57.664;39.686;2023-03-04T07:42:05;98280.59;;;4.05;52.16
63343;BME280;49465;57.664;39.686;2023-03-04T07:44:34;98287.94;;;4.11;52.11
63343;BME280;49465;57.664;39.686;2023-03-04T07:47:03;98281.72;;;4.13;52.31
63343;BME280;49465;57.664;39.686;2023-03-04T07:49:33;98286.69;;;4.16;51.95
63343;BME280;49465;57.664;39.686;2023-03-04T07:52:03;98284.69;;;4.33;51.83
63343;BME280;49465;57.664;39.686;2023-03-04T07:54:30;98282.03;;;4.22;51.86
63343;BME280;49465;57.664;39.686;2023-03-04T07:56:56;98281.19;;;4.21;52.52
63343;BME280;49465;57.664;39.686;2023-03-04T07:59:23;98280.88;;;4.26;52.43
63343;BME280;49465;57.664;39.686;2023-03-04T08:01:50;98281.69;;;4.26;52.12
63343;BME280;49465;57.664;39.686;2023-03-04T08:04:18;98285.97;;;4.27;52.65
63343;BME280;49465;57.664;39.686;2023-03-04T08:06:47;98285.41;;;4.35;52.29
63343;BME280;49465;57.664;39.686;2023-03-04T08:09:14;98276.59;;;4.38;52.48
63343;BME280;49465;57.664;39.686;2023-03-04T08:11:40;98279.66;;;4.43;52.20
63343;BME280;49465;57.664;39.686;2023-03-04T08:14:07;98276.34;;;4.41;52.29
63343;BME280;49465;57.664;39.686;2023-03-04T08:16:34;98279.47;;;4.46;52.04
63343;BME280;49465;57.664;39.686;2023-03-04T08:19:04;98277.59;;;4.48;52.00
63343;BME280;49465;57.664;39.686;2023-03-04T08:21:31;98272.41;;;4.48;51.94
63343;BME280;49465;57.664;39.686;2023-03-04T08:24:02;98280.25;;;4.59;51.95
63343;BME280;49465;57.664;39.686;2023-03-04T08:26:38;98274.72;;;4.64;52.74
63343;BME280;49465;57.664;39.686;2023-03-04T08:29:14;98264.59;;;4.72;52.05
63343;BME280;49465;57.664;39.686;2023-03-04T08:31:41;98261.97;;;4.61;52.48
63343;BME280;49465;57.664;39.686;2023-03-04T08:34:08;98272.13;;;4.64;51.79
63343;BME280;49465;57.664;39.686;2023-03-04T08:36:39;98268.72;;;4.63;52.68
63343;BME280;49465;57.664;39.686;2023-03-04T08:39:08;98266.72;;;4.67;52.44
63343;BME280;49465;57.664;39.686;2023-03-04T08:41:39;98272.63;;;4.69;52.18
63343;BME280;49465;57.664;39.686;2023-03-04T08:44:09;98272.72;;;4.67;52.22
63343;BME280;49465;57.664;39.686;2023-03-04T08:46:37;98266.16;;;4.74;52.61
63343;BME280;49465;57.664;39.686;2023-03-04T08:49:04;98260.38;;;4.71;51.85
63343;BME280;49465;57.664;39.686;2023-03-04T08:51:30;98260.25;;;4.72;52.78
63343;BME280;49465;57.664;39.686;2023-03-04T08:53:57;98254.94;;;4.74;52.80
63343;BME280;49465;57.664;39.686;2023-03-04T08:56:26;98254.81;;;4.75;52.71
63343;BME280;49465;57.664;39.686;2023-03-04T08:58:55;98255.66;;;4.76;52.61
63343;BME280;49465;57.664;39.686;2023-03-04T09:01:21;98252.94;;;4.78;53.37
63343;BME280;49465;57.664;39.686;2023-03-04T09:03:51;98251.72;;;4.94;53.18
63343;BME280;49465;57.664;39.686;2023-03-04T09:06:20;98249.91;;;4.84;53.14
63343;BME280;49465;57.664;39.686;2023-03-04T09:08:46;98256.75;;;4.85;53.90
63343;BME280;49465;57.664;39.686;2023-03-04T09:11:16;98258.19;;;4.89;53.92
63343;BME280;49465;57.664;39.686;2023-03-04T09:13:44;98252.75;;;4.92;53.46
63343;BME280;49465;57.664;39.686;2023-03-04T09:16:13;98251.38;;;4.99;54.12
63343;BME280;49465;57.664;39.686;2023-03-04T09:18:43;98253.25;;;4.97;53.44
63343;BME280;49465;57.664;39.686;2023-03-04T09:21:11;98247.13;;;4.98;52.93
63343;BME280;49465;57.664;39.686;2023-03-04T09:23:38;98250.56;;;4.99;53.44
63343;BME280;49465;57.664;39.686;2023-03-04T09:26:26;98246.53;;;5.52;52.97
63343;BME280;49465;57.664;39.686;2023-03-04T09:28:57;98239.34;;;5.09;52.72
63343;BME280;49465;57.664;39.686;2023-03-04T09:31:24;98244.69;;;5.08;52.90
63343;BME280;49465;57.664;39.686;2023-03-04T09:33:52;98239.50;;;5.08;52.75
63343;BME280;49465;57.664;39.686;2023-03-04T09:36:19;98227.22;;;5.10;52.31
63343;BME280;49465;57.664;39.686;2023-03-04T09:38:52;98223.44;;;5.14;51.79
63343;BME280;49465;57.664;39.686;2023-03-04T09:41:22;98224.75;;;5.31;52.44
63343;BME280;49465;57.664;39.686;2023-03-04T09:43:53;98223.81;;;5.32;51.80
63343;BME280;49465;57.664;39.686;2023-03-04T09:46:36;98224.09;;;5.63;51.77
63343;BME280;49465;57.664;39.686;2023-03-04T09:49:08;98216.75;;;5.34;52.37
63343;BME280;49465;57.664;39.686;2023-03-04T09:57:09;98215.81;;;5.69;51.32
63343;BME280;49465;57.664;39.686;2023-03-04T10:00:05;98213.81;;;5.72;51.00
63343;BME280;49465;57.664;39.686;2023-03-04T10:02:45;98207.78;;;5.61;51.08
63343;BME280;49465;57.664;39.686;2023-03-04T10:05:20;98210.84;;;5.77;51.07
63343;BME280;49465;57.664;39.686;2023-03-04T10:08:00;98204.81;;;5.99;51.11
63343;BME280;49465;57.664;39.686;2023-03-04T10:10:38;98202.00;;;6.02;51.32
63343;BME280;49465;57.664;39.686;2023-03-04T10:13:15;98207.19;;;6.02;51.51
63343;BME280;49465;57.664;39.686;2023-03-04T10:15:48;98206.59;;;5.99;51.56
63343;BME280;49465;57.664;39.686;2023-03-04T10:18:36;98208.09;;;6.24;50.68
63343;BME280;49465;57.664;39.686;2023-03-04T10:23:41;98203.28;;;5.85;51.23
63343;BME280;49465;57.664;39.686;2023-03-04T10:26:16;98205.63;;;6.00;51.33
63343;BME280;49465;57.664;39.686;2023-03-04T10:28:43;98195.94;;;5.90;51.65
63343;BME280;49465;57.664;39.686;2023-03-04T10:31:33;98203.91;;;6.44;51.69
63343;BME280;49465;57.664;39.686;2023-03-04T10:34:08;98190.59;;;6.14;51.77
63343;BME280;49465;57.664;39.686;2023-03-04T10:39:39;98191.34;;;6.49;50.63
63343;BME280;49465;57.664;39.686;2023-03-04T10:45:00;98188.78;;;6.38;50.22
63343;BME280;49465;57.664;39.686;2023-03-04T10:47:33;98184.78;;;6.22;50.05
63343;BME280;49465;57.664;39.686;2023-03-04T10:50:04;98176.75;;;6.25;50.12
63343;BME280;49465;57.664;39.686;2023-03-04T10:52:45;98176.00;;;6.34;50.12
63343;BME280;49465;57.664;39.686;2023-03-04T10:55:22;98172.69;;;6.32;49.83
63343;BME280;49465;57.664;39.686;2023-03-04T10:57:55;98179.47;;;6.24;49.92
63343;BME280;49465;57.664;39.686;2023-03-04T11:00:32;98170.03;;;6.11;49.47
63343;BME280;49465;57.664;39.686;2023-03-04T11:06:19;98175.03;;;6.68;49.99
63343;BME280;49465;57.664;39.686;2023-03-04T11:08:54;98166.25;;;6.48;50.26
63343;BME280;49465;57.664;39.686;2023-03-04T11:11:41;98175.03;;;6.68;50.00
63343;BME280;49465;57.664;39.686;2023-03-04T11:14:39;98162.13;;;6.66;49.86
63343;BME280;49465;57.664;39.686;2023-03-04T11:17:38;98160.94;;;6.70;48.57
63343;BME280;49465;57.664;39.686;2023-03-04T11:20:31;98165.94;;;6.62;49.77
63343;BME280;49465;57.664;39.686;2023-03-04T11:23:04;98159.56;;;6.34;50.01
63343;BME280;49465;57.664;39.686;2023-03-04T11:26:01;98160.94;;;6.70;48.50
63343;BME280;49465;57.664;39.686;2023-03-04T11:37:52;98146.72;;;6.75;49.37
63343;BME280;49465;57.664;39.686;2023-03-04T11:40:38;98138.56;;;6.68;49.70
63343;BME280;49465;57.664;39.686;2023-03-04T11:43:24;98140.47;;;6.66;49.35
63343;BME280;49465;57.664;39.686;2023-03-04T11:51:32;98131.47;;;6.70;49.16
63343;BME280;49465;57.664;39.686;2023-03-04T11:56:53;98130.41;;;6.40;49.16
63343;BME280;49465;57.664;39.686;2023-03-04T11:59:34;98123.56;;;6.60;49.35
63343;BME280;49465;57.664;39.686;2023-03-04T12:05:14;98120.16;;;6.81;49.11
63343;BME280;49465;57.664;39.686;2023-03-04T12:10:35;98111.91;;;6.76;49.14
63343;BME280;49465;57.664;39.686;2023-03-04T12:19:05;98102.94;;;6.89;48.60
63343;BME280;49465;57.664;39.686;2023-03-04T12:54:39;98072.66;;;7.29;48.28
63343;BME280;49465;57.664;39.686;2023-03-04T12:57:13;98062.09;;;6.90;48.76
63343;BME280;49465;57.664;39.686;2023-03-04T13:02:47;98059.28;;;7.12;47.65
63343;BME280;49465;57.664;39.686;2023-03-04T13:10:49;98047.41;;;6.89;47.46
63343;BME280;49465;57.664;39.686;2023-03-04T13:13:40;98053.63;;;7.38;45.70
63343;BME280;49465;57.664;39.686;2023-03-04T13:16:59;98044.09;;;7.18;46.51
63343;BME280;49465;57.664;39.686;2023-03-04T13:19:00;98038.13;;;6.96;47.30
63343;BME280;49465;57.664;39.686;2023-03-04T13:21:30;98035.94;;;7.01;47.28
63343;BME280;49465;57.664;39.686;2023-03-04T13:27:48;98029.25;;;7.59;47.16
63343;BME280;49465;57.664;39.686;2023-03-04T13:36:25;98033.94;;;7.75;46.69
63343;BME280;49465;57.664;39.686;2023-03-04T13:41:51;98027.84;;;7.45;46.07
63343;BME280;49465;57.664;39.686;2023-03-04T13:44:33;98031.03;;;7.68;46.27
63343;BME280;49465;57.664;39.686;2023-03-04T13:47:20;98025.69;;;7.79;46.46
63343;BME280;49465;57.664;39.686;2023-03-04T13:49:51;98023.97;;;7.29;46.45
63343;BME280;49465;57.664;39.686;2023-03-04T13:52:40;98024.94;;;7.38;46.09
63343;BME280;49465;57.664;39.686;2023-03-04T13:55:32;98024.06;;;7.78;46.29
63343;BME280;49465;57.664;39.686;2023-03-04T14:00:54;98021.25;;;7.50;45.20
63343;BME280;49465;57.664;39.686;2023-03-04T14:03:30;98022.22;;;7.49;45.44
63343;BME280;49465;57.664;39.686;2023-03-04T14:06:39;98019.66;;;7.98;46.07
63343;BME280;49465;57.664;39.686;2023-03-04T14:09:16;98005.59;;;8.48;46.08
63343;BME280;49465;57.664;39.686;2023-03-04T14:12:00;98008.78;;;7.73;45.09
63343;BME280;49465;57.664;39.686;2023-03-04T14:14:51;98004.94;;;7.87;45.51
63343;BME280;49465;57.664;39.686;2023-03-04T14:17:31;98010.72;;;7.71;45.50
63343;BME280;49465;57.664;39.686;2023-03-04T14:20:02;98005.56;;;7.31;45.03
63343;BME280;49465;57.664;39.686;2023-03-04T14:22:42;98006.47;;;7.61;45.00
63343;BME280;49465;57.664;39.686;2023-03-04T14:25:22;98006.69;;;7.38;44.33
63343;BME280;49465;57.664;39.686;2023-03-04T14:28:13;97997.69;;;7.71;44.94
63343;BME280;49465;57.664;39.686;2023-03-04T14:30:52;98001.31;;;7.20;44.61
63343;BME280;49465;57.664;39.686;2023-03-04T14:33:32;97998.88;;;7.48;44.80
63343;BME280;49465;57.664;39.686;2023-03-04T14:36:02;97994.59;;;7.27;44.39
63343;BME280;49465;57.664;39.686;2023-03-04T14:38:39;97992.41;;;7.42;44.79
63343;BME280;49465;57.664;39.686;2023-03-04T14:46:48;98003.63;;;7.13;44.35
63343;BME280;49465;57.664;39.686;2023-03-04T14:49:19;97997.00;;;7.09;44.62
63343;BME280;49465;57.664;39.686;2023-03-04T14:51:51;97999.47;;;7.11;44.35
63343;BME280;49465;57.664;39.686;2023-03-04T14:54:34;97990.09;;;7.29;44.79
63343;BME280;49465;57.664;39.686;2023-03-04T14:59:50;97993.47;;;6.80;44.38
63343;BME280;49465;57.664;39.686;2023-03-04T15:02:25;97995.19;;;6.90;44.13
63343;BME280;49465;57.664;39.686;2023-03-04T15:05:06;97995.50;;;6.76;44.76
63343;BME280;49465;57.664;39.686;2023-03-04T15:07:37;97997.88;;;6.79;44.63
63343;BME280;49465;57.664;39.686;2023-03-04T15:10:13;97996.81;;;6.91;44.99
63343;BME280;49465;57.664;39.686;2023-03-04T15:12:51;97999.78;;;6.77;44.93
63343;BME280;49465;57.664;39.686;2023-03-04T15:15:38;98004.09;;;6.98;45.08
63343;BME280;49465;57.664;39.686;2023-03-04T15:18:22;98001.03;;;6.83;44.43
63343;BME280;49465;57.664;39.686;2023-03-04T15:21:23;97999.66;;;6.79;45.43
63343;BME280;49465;57.664;39.686;2023-03-04T15:23:59;98008.41;;;6.47;45.63
63343;BME280;49465;57.664;39.686;2023-03-04T15:26:31;98008.13;;;6.29;45.39